createdAt,value
2022-12-27T00:01:16.585Z,2.97
2022-12-27T00:03:45.071Z,4.20
2022-12-27T00:06:15.545Z,5.40
2022-12-27T00:08:43.624Z,4.03
2022-12-27T00:11:13.226Z,4.40
2022-12-27T00:13:40.835Z,5.63
2022-12-27T00:16:10.775Z,3.90
2022-12-27T00:18:40.861Z,5.77
2022-12-27T00:21:10.725Z,5.03
2022-12-27T00:23:41.763Z,4.63
2022-12-27T00:26:12.140Z,3.13
2022-12-27T00:28:39.896Z,2.33
2022-12-27T00:31:07.798Z,3.87
2022-12-27T00:33:37.839Z,3.07
2022-12-27T00:36:09.780Z,3.13
2022-12-27T00:38:37.567Z,3.33
2022-12-27T00:41:07.064Z,3.60
2022-12-27T00:43:35.903Z,3.33
2022-12-27T00:46:03.841Z,2.80
2022-12-27T00:48:31.591Z,2.60
2022-12-27T00:51:00.564Z,2.23
2022-12-27T00:53:30.563Z,2.47
2022-12-27T00:55:58.534Z,3.83
2022-12-27T00:58:26.959Z,2.87
2022-12-27T01:00:54.600Z,3.33
2022-12-27T01:03:22.135Z,2.30
2022-12-27T01:05:49.717Z,3.33
2022-12-27T01:08:17.231Z,3.20
2022-12-27T01:10:46.053Z,2.33
2022-12-27T01:13:13.574Z,3.33
2022-12-27T01:15:42.805Z,3.23
2022-12-27T01:18:10.511Z,4.60
2022-12-27T01:20:38.836Z,3.60
2022-12-27T01:23:06.383Z,2.93
2022-12-27T01:25:33.928Z,2.10
2022-12-27T01:28:02.867Z,2.87
2022-12-27T01:30:30.515Z,4.17
2022-12-27T01:32:58.125Z,2.93
2022-12-27T01:35:25.837Z,2.57
2022-12-27T01:37:53.391Z,3.77
2022-12-27T01:40:20.926Z,2.47
2022-12-27T01:42:53.401Z,3.60
2022-12-27T01:45:24.510Z,3.13
2022-12-27T01:48:00.493Z,1.97
2022-12-27T01:50:33.630Z,1.93
2022-12-27T01:53:09.571Z,3.97
2022-12-27T01:55:41.535Z,2.73
2022-12-27T01:58:13.111Z,3.37
2022-12-27T02:00:45.927Z,5.13
2022-12-27T02:03:19.257Z,4.80
2022-12-27T02:05:46.993Z,3.47
2022-12-27T02:08:34.525Z,4.50
2022-12-27T02:11:03.754Z,4.53
2022-12-27T02:13:33.648Z,4.93
2022-12-27T02:16:02.929Z,2.67
2022-12-27T02:18:30.435Z,3.23
2022-12-27T02:21:20.755Z,2.70
2022-12-27T02:24:03.044Z,3.53
2022-12-27T02:26:45.781Z,2.90
2022-12-27T02:29:40.478Z,2.97
2022-12-27T02:32:11.548Z,4.47
2022-12-27T02:34:48.020Z,4.27
2022-12-27T02:37:15.836Z,1.67
2022-12-27T02:39:47.112Z,2.63
2022-12-27T02:42:34.831Z,1.73
2022-12-27T02:45:29.331Z,2.47
2022-12-27T02:48:16.945Z,4.30
2022-12-27T02:51:15.039Z,2.37
2022-12-27T02:53:54.687Z,3.13
2022-12-27T02:56:52.563Z,1.83
2022-12-27T02:59:38.283Z,3.07
2022-12-27T03:02:35.817Z,2.67
2022-12-27T03:05:16.995Z,3.13
2022-12-27T03:07:52.446Z,1.97
2022-12-27T03:10:48.596Z,2.77
2022-12-27T03:13:42.588Z,2.97
2022-12-27T03:16:17.489Z,3.13
2022-12-27T03:19:08.528Z,2.87
2022-12-27T03:21:57.189Z,3.60
2022-12-27T03:24:46.979Z,4.27
2022-12-27T03:27:18.107Z,3.77
2022-12-27T03:30:08.291Z,4.20
2022-12-27T03:33:04.107Z,2.30
2022-12-27T03:35:39.188Z,2.27
2022-12-27T03:38:09.354Z,4.50
2022-12-27T03:41:08.119Z,4.73
2022-12-27T03:43:37.649Z,2.43
2022-12-27T03:46:32.021Z,3.23
2022-12-27T03:49:10.136Z,2.07
2022-12-27T03:51:43.616Z,3.13
2022-12-27T03:54:16.943Z,2.67
2022-12-27T03:56:44.507Z,2.50
2022-12-27T03:59:13.555Z,3.27
2022-12-27T04:01:42.405Z,3.13
2022-12-27T04:04:10.124Z,2.13
2022-12-27T04:06:39.018Z,2.83
2022-12-27T04:09:24.392Z,2.90
2022-12-27T04:12:09.799Z,3.80
2022-12-27T04:14:55.176Z,1.93
2022-12-27T04:17:40.365Z,4.47
2022-12-27T04:20:26.166Z,3.13
2022-12-27T04:23:12.773Z,2.70
2022-12-27T04:25:58.008Z,3.90
2022-12-27T04:28:43.238Z,2.33
2022-12-27T04:31:28.509Z,2.47
2022-12-27T04:34:13.897Z,2.50
2022-12-27T04:36:41.412Z,3.57
2022-12-27T04:39:10.269Z,2.93
2022-12-27T04:41:55.278Z,3.73
2022-12-27T04:44:40.507Z,2.23
2022-12-27T04:47:30.889Z,2.47
2022-12-27T04:50:16.212Z,3.80
2022-12-27T04:53:01.466Z,3.00
2022-12-27T04:55:31.718Z,2.97
2022-12-27T04:57:59.874Z,4.97
2022-12-27T05:00:48.475Z,2.20
2022-12-27T05:03:19.084Z,2.93
2022-12-27T05:05:47.871Z,2.37
2022-12-27T05:08:33.298Z,3.87
2022-12-27T05:11:19.862Z,2.53
2022-12-27T05:14:02.747Z,2.17
2022-12-27T05:16:31.604Z,2.83
2022-12-27T05:18:59.611Z,2.43
2022-12-27T05:21:27.558Z,3.10
2022-12-27T05:24:12.784Z,2.80
2022-12-27T05:26:42.168Z,2.83
2022-12-27T05:29:09.751Z,3.50
2022-12-27T05:31:37.397Z,3.07
2022-12-27T05:34:06.236Z,2.90
2022-12-27T05:36:34.162Z,2.83
2022-12-27T05:39:01.837Z,3.10
2022-12-27T05:41:29.377Z,3.93
2022-12-27T05:44:03.392Z,2.97
2022-12-27T05:46:34.304Z,4.00
2022-12-27T05:49:01.803Z,2.13
2022-12-27T05:51:29.321Z,2.83
2022-12-27T05:53:56.967Z,2.93
2022-12-27T05:56:24.732Z,3.23
2022-12-27T05:58:54.308Z,4.37
2022-12-27T06:01:23.817Z,3.67
2022-12-27T06:03:51.386Z,3.13
2022-12-27T06:06:18.895Z,1.73
2022-12-27T06:08:46.668Z,2.80
2022-12-27T06:11:16.290Z,3.17
2022-12-27T06:13:48.986Z,1.87
2022-12-27T06:16:16.891Z,2.97
2022-12-27T06:18:45.836Z,2.50
2022-12-27T06:21:15.316Z,2.87
2022-12-27T06:23:44.621Z,1.40
2022-12-27T06:26:14.770Z,2.13
2022-12-27T06:28:42.362Z,4.27
2022-12-27T06:31:09.885Z,1.90
2022-12-27T06:33:37.455Z,3.03
2022-12-27T06:36:10.005Z,3.73
2022-12-27T06:38:38.191Z,4.23
2022-12-27T06:41:07.397Z,3.47
2022-12-27T06:43:35.423Z,2.07
2022-12-27T06:46:05.672Z,2.53
2022-12-27T06:48:33.487Z,2.80
2022-12-27T06:51:04.607Z,3.60
2022-12-27T06:53:33.799Z,2.80
2022-12-27T06:56:04.704Z,2.07
2022-12-27T06:58:32.289Z,2.47
2022-12-27T07:01:07.296Z,3.30
2022-12-27T07:03:34.897Z,1.57
2022-12-27T07:06:03.359Z,4.13
2022-12-27T07:08:32.816Z,2.40
2022-12-27T07:11:01.269Z,2.70
2022-12-27T07:13:28.848Z,3.47
2022-12-27T07:15:56.520Z,3.97
2022-12-27T07:18:23.989Z,2.43
2022-12-27T07:20:51.511Z,2.17
2022-12-27T07:23:19.559Z,6.13
2022-12-27T07:25:48.529Z,3.30
2022-12-27T07:28:16.097Z,3.97
2022-12-27T07:30:43.796Z,3.57
2022-12-27T07:33:11.317Z,2.13
2022-12-27T07:35:44.823Z,4.00
2022-12-27T07:38:12.635Z,1.93
2022-12-27T07:40:40.144Z,2.67
2022-12-27T07:43:09.092Z,3.73
2022-12-27T07:45:36.617Z,3.07
2022-12-27T07:48:04.425Z,4.27
2022-12-27T07:50:31.967Z,3.70
2022-12-27T07:52:59.473Z,2.47
2022-12-27T07:55:26.981Z,3.20
2022-12-27T07:57:54.478Z,2.57
2022-12-27T08:00:23.458Z,2.83
2022-12-27T08:02:50.996Z,3.20
2022-12-27T08:05:24.391Z,4.17
2022-12-27T08:07:55.139Z,3.40
2022-12-27T08:10:22.664Z,1.70
2022-12-27T08:12:50.198Z,3.00
2022-12-27T08:15:17.735Z,3.40
2022-12-27T08:17:47.115Z,3.37
2022-12-27T08:20:15.431Z,2.73
2022-12-27T08:22:42.971Z,2.90
2022-12-27T08:25:11.129Z,3.73
2022-12-27T08:27:38.622Z,3.10
2022-12-27T08:30:07.377Z,2.70
2022-12-27T08:32:35.266Z,5.30
2022-12-27T08:35:25.048Z,3.43
2022-12-27T08:37:51.659Z,2.50
2022-12-27T08:40:19.793Z,2.67
2022-12-27T08:42:47.613Z,3.20
2022-12-27T08:45:15.779Z,2.87
2022-12-27T08:47:43.290Z,2.87
2022-12-27T08:50:12.246Z,2.97
2022-12-27T08:52:39.781Z,3.27
2022-12-27T08:55:08.031Z,2.00
2022-12-27T08:57:35.589Z,2.87
2022-12-27T09:00:03.630Z,2.40
2022-12-27T09:02:31.319Z,2.30
2022-12-27T09:04:58.917Z,2.17
2022-12-27T09:07:27.804Z,2.83
2022-12-27T09:09:55.329Z,2.40
2022-12-27T09:12:22.850Z,3.10
2022-12-27T09:14:50.420Z,2.37
2022-12-27T09:17:17.913Z,2.73
2022-12-27T09:19:45.446Z,3.33
2022-12-27T09:22:12.958Z,2.53
2022-12-27T09:24:41.864Z,3.30
2022-12-27T09:27:09.438Z,2.13
2022-12-27T09:29:36.958Z,2.93
2022-12-27T09:32:04.736Z,1.70
2022-12-27T09:34:32.261Z,2.73
2022-12-27T09:36:59.754Z,2.37
2022-12-27T09:39:27.233Z,3.30
2022-12-27T09:44:58.048Z,2.30
2022-12-27T09:47:29.626Z,2.80
2022-12-27T09:50:02.860Z,2.93
2022-12-27T09:52:35.370Z,1.47
2022-12-27T09:55:09.100Z,2.27
2022-12-27T09:57:41.264Z,2.33
2022-12-27T10:00:16.329Z,2.08
2022-12-27T10:02:45.375Z,1.77
2022-12-27T10:05:22.323Z,2.03
2022-12-27T10:08:02.100Z,2.40
2022-12-27T10:10:41.432Z,2.25
2022-12-27T10:13:30.005Z,2.13
2022-12-27T10:16:05.028Z,3.25
2022-12-27T10:18:45.365Z,3.55
2022-12-27T10:21:20.534Z,3.15
2022-12-27T10:23:54.604Z,2.40
2022-12-27T10:26:22.433Z,3.03
2022-12-27T10:28:57.526Z,2.65
2022-12-27T10:31:26.522Z,1.90
2022-12-27T10:33:54.843Z,3.05
2022-12-27T10:36:24.789Z,2.40
2022-12-27T10:38:52.375Z,2.97
2022-12-27T10:41:40.603Z,3.35
2022-12-27T10:44:12.696Z,2.47
2022-12-27T10:46:43.125Z,3.20
2022-12-27T10:49:24.008Z,3.20
2022-12-27T10:51:53.418Z,3.15
2022-12-27T10:54:24.926Z,4.60
2022-12-27T10:56:53.017Z,2.65
2022-12-27T10:59:24.072Z,3.05
2022-12-27T11:02:15.999Z,3.83
2022-12-27T11:04:57.553Z,2.67
2022-12-27T11:07:30.843Z,3.70
2022-12-27T11:10:08.647Z,2.63
2022-12-27T11:12:36.507Z,3.38
2022-12-27T11:15:15.671Z,3.55
2022-12-27T11:17:45.937Z,2.75
2022-12-27T11:20:22.372Z,3.47
2022-12-27T11:22:53.431Z,3.88
2022-12-27T11:25:21.687Z,3.33
2022-12-27T11:27:53.592Z,3.55
2022-12-27T11:30:30.083Z,3.35
2022-12-27T11:33:01.550Z,3.03
2022-12-27T11:35:29.397Z,3.67
2022-12-27T11:37:57.434Z,2.97
2022-12-27T11:40:30.439Z,2.63
2022-12-27T11:43:06.354Z,3.67
2022-12-27T11:45:41.606Z,3.63
2022-12-27T11:48:21.508Z,3.42
2022-12-27T11:51:01.000Z,3.78
2022-12-27T11:53:57.967Z,3.95
2022-12-27T11:56:28.326Z,3.65
2022-12-27T11:59:21.367Z,2.85
2022-12-27T12:02:15.913Z,2.83
2022-12-27T12:05:16.927Z,2.28
2022-12-27T12:07:59.394Z,4.95
2022-12-27T12:10:36.209Z,2.60
2022-12-27T12:13:24.505Z,2.58
2022-12-27T12:16:06.596Z,3.80
2022-12-27T12:18:49.093Z,4.55
2022-12-27T12:21:26.231Z,2.50
2022-12-27T12:24:23.849Z,3.20
2022-12-27T12:27:05.636Z,2.67
2022-12-27T12:30:22.453Z,3.55
2022-12-27T12:33:07.690Z,3.47
2022-12-27T12:35:53.783Z,3.53
2022-12-27T12:38:23.502Z,3.03
2022-12-27T12:41:12.690Z,3.28
2022-12-27T12:44:03.279Z,3.22
2022-12-27T12:46:38.613Z,3.63
2022-12-27T12:49:24.118Z,3.20
2022-12-27T12:52:04.823Z,3.40
2022-12-27T12:55:07.696Z,3.50
2022-12-27T12:57:47.770Z,3.13
2022-12-27T13:00:31.467Z,3.17
2022-12-27T13:03:24.388Z,3.20
2022-12-27T13:05:58.816Z,3.50
2022-12-27T13:08:34.309Z,2.77
2022-12-27T13:11:13.940Z,2.97
2022-12-27T13:13:56.529Z,3.17
2022-12-27T13:16:36.464Z,3.78
2022-12-27T13:19:18.839Z,4.73
2022-12-27T13:22:04.003Z,4.13
2022-12-27T13:24:46.758Z,3.53
2022-12-27T13:27:22.301Z,2.80
2022-12-27T13:30:06.271Z,2.93
2022-12-27T13:32:45.872Z,3.50
2022-12-27T13:35:30.312Z,2.70
2022-12-27T13:38:14.101Z,3.27
2022-12-27T13:41:04.143Z,2.63
2022-12-27T13:43:50.989Z,2.40
2022-12-27T13:46:42.388Z,3.70
2022-12-27T13:49:28.659Z,3.57
2022-12-27T13:52:10.002Z,2.40
2022-12-27T13:55:06.613Z,2.03
2022-12-27T14:00:32.619Z,2.87
2022-12-27T14:03:36.934Z,3.37
2022-12-27T14:06:34.929Z,2.50
2022-12-27T14:09:43.988Z,2.43
2022-12-27T14:12:43.564Z,4.60
2022-12-27T14:15:17.940Z,3.50
2022-12-27T14:17:55.455Z,2.73
2022-12-27T14:20:37.425Z,3.70
2022-12-27T14:23:37.634Z,4.27
2022-12-27T14:26:39.171Z,3.40
2022-12-27T14:29:30.538Z,3.27
2022-12-27T14:32:16.179Z,4.00
2022-12-27T14:35:24.497Z,4.27
2022-12-27T14:38:30.756Z,3.23
2022-12-27T14:41:19.404Z,2.73
2022-12-27T14:44:25.628Z,2.67
2022-12-27T14:47:34.659Z,3.23
2022-12-27T14:50:40.440Z,3.33
2022-12-27T14:53:51.448Z,3.60
2022-12-27T14:56:29.502Z,2.90
2022-12-27T14:59:15.258Z,2.63
2022-12-27T15:01:56.041Z,2.00
2022-12-27T15:04:41.376Z,3.33
2022-12-27T15:07:31.065Z,4.27
2022-12-27T15:10:09.466Z,2.97
2022-12-27T15:12:44.527Z,4.93
2022-12-27T15:15:28.054Z,3.80
2022-12-27T15:18:10.196Z,3.50
2022-12-27T15:20:53.671Z,2.57
2022-12-27T15:23:30.130Z,3.93
2022-12-27T15:30:19.839Z,2.97
2022-12-27T15:32:58.043Z,3.87
2022-12-27T15:35:40.079Z,3.13
2022-12-27T15:38:12.278Z,3.97
2022-12-27T15:40:47.623Z,3.17
2022-12-27T15:43:34.918Z,3.57
2022-12-27T15:46:18.894Z,3.57
2022-12-27T15:49:13.862Z,5.27
2022-12-27T15:51:51.051Z,3.93
2022-12-27T15:54:39.818Z,4.23
2022-12-27T15:57:23.991Z,3.80
2022-12-27T15:59:53.287Z,3.17
2022-12-27T16:02:37.962Z,3.77
2022-12-27T16:05:33.794Z,3.63
2022-12-27T16:08:27.296Z,4.20
2022-12-27T16:10:56.015Z,4.67
2022-12-27T16:13:49.332Z,4.70
2022-12-27T16:16:56.715Z,4.93
2022-12-27T16:19:59.823Z,4.17
2022-12-27T16:22:33.104Z,4.10
2022-12-27T16:25:23.049Z,4.27
2022-12-27T16:27:57.179Z,4.63
2022-12-27T16:30:41.527Z,5.47
2022-12-27T16:33:22.862Z,6.23
2022-12-27T16:36:04.774Z,4.07
2022-12-27T16:38:34.336Z,3.47
2022-12-27T16:41:15.357Z,4.43
2022-12-27T16:44:06.824Z,3.87
2022-12-27T16:46:49.163Z,4.87
2022-12-27T16:49:34.579Z,3.87
2022-12-27T16:52:19.541Z,4.13
2022-12-27T16:54:55.346Z,3.87
2022-12-27T16:57:34.711Z,2.87
2022-12-27T17:00:06.301Z,5.23
2022-12-27T17:02:41.916Z,4.87
2022-12-27T17:05:37.329Z,4.43
2022-12-27T17:08:16.238Z,4.60
2022-12-27T17:10:55.380Z,5.93
2022-12-27T17:13:35.139Z,4.10
2022-12-27T17:16:07.743Z,3.50
2022-12-27T17:18:38.110Z,4.43
2022-12-27T17:21:09.703Z,4.57
2022-12-27T17:23:42.211Z,4.10
2022-12-27T17:26:29.256Z,4.40
2022-12-27T17:29:06.597Z,3.83
2022-12-27T17:31:40.887Z,5.20
2022-12-27T17:34:16.912Z,4.80
2022-12-27T17:36:59.633Z,5.03
2022-12-27T17:39:47.914Z,4.70
2022-12-27T17:42:42.545Z,3.90
2022-12-27T17:45:22.578Z,4.30
2022-12-27T17:48:03.970Z,4.57
2022-12-27T17:50:32.439Z,3.03
2022-12-27T17:53:34.347Z,4.23
2022-12-27T17:56:30.255Z,3.67
2022-12-27T17:59:03.857Z,3.80
2022-12-27T18:01:35.460Z,4.77
2022-12-27T18:04:05.606Z,4.17
2022-12-27T18:06:35.440Z,4.03
2022-12-27T18:09:03.652Z,4.33
2022-12-27T18:11:34.191Z,4.87
2022-12-27T18:14:02.364Z,6.40
2022-12-27T18:16:38.339Z,3.83
2022-12-27T18:19:06.015Z,4.17
2022-12-27T18:21:33.464Z,4.73
2022-12-27T18:24:00.929Z,4.30
2022-12-27T18:26:38.154Z,5.33
2022-12-27T18:29:06.740Z,3.50
2022-12-27T18:31:42.819Z,4.27
2022-12-27T18:34:20.203Z,4.30
2022-12-27T18:36:51.376Z,2.67
2022-12-27T18:39:27.379Z,4.33
2022-12-27T18:41:56.656Z,4.80
2022-12-27T18:44:27.836Z,3.43
2022-12-27T18:47:01.151Z,6.33
2022-12-27T18:49:33.439Z,4.77
2022-12-27T18:52:01.637Z,5.93
2022-12-27T18:54:35.940Z,5.43
2022-12-27T18:57:05.612Z,4.73
2022-12-27T18:59:35.751Z,4.17
2022-12-27T19:02:34.146Z,4.40
2022-12-27T19:05:15.495Z,4.23
2022-12-27T19:07:43.307Z,4.37
2022-12-27T19:10:17.788Z,3.23
2022-12-27T19:12:46.523Z,5.90
2022-12-27T19:15:17.670Z,4.10
2022-12-27T19:17:49.639Z,5.00
2022-12-27T19:20:22.351Z,4.30
2022-12-27T19:22:52.998Z,4.60
2022-12-27T19:25:23.972Z,7.40
2022-12-27T19:28:03.396Z,5.80
2022-12-27T19:30:40.998Z,5.07
2022-12-27T19:33:16.246Z,4.73
2022-12-27T19:35:44.136Z,4.77
2022-12-27T19:38:20.506Z,5.10
2022-12-27T19:40:50.221Z,6.63
2022-12-27T19:43:18.736Z,4.77
2022-12-27T19:45:46.403Z,5.67
2022-12-27T19:48:15.190Z,5.30
2022-12-27T19:50:47.413Z,6.50
2022-12-27T19:53:17.265Z,5.53
2022-12-27T19:55:44.972Z,5.60
2022-12-27T19:58:21.236Z,6.50
2022-12-27T20:00:48.851Z,6.43
2022-12-27T20:03:18.237Z,3.87
2022-12-27T20:06:14.814Z,5.17
2022-12-27T20:08:37.983Z,5.83
2022-12-27T20:11:12.441Z,5.83
2022-12-27T20:13:39.987Z,5.67
2022-12-27T20:16:08.755Z,5.57
2022-12-27T20:18:38.373Z,5.57
2022-12-27T20:21:06.336Z,5.97
2022-12-27T20:23:33.805Z,6.60
2022-12-27T20:26:02.166Z,4.50
2022-12-27T20:28:30.630Z,6.90
2022-12-27T20:30:58.086Z,6.87
2022-12-27T20:33:25.676Z,5.63
2022-12-27T20:35:58.644Z,6.07
2022-12-27T20:38:26.841Z,5.93
2022-12-27T20:40:54.372Z,5.03
2022-12-27T20:43:21.901Z,4.07
2022-12-27T20:45:49.532Z,3.73
2022-12-27T20:48:16.963Z,4.57
2022-12-27T20:50:44.389Z,5.77
2022-12-27T20:53:13.220Z,5.40
2022-12-27T20:55:40.694Z,4.63
2022-12-27T20:58:08.147Z,6.63
2022-12-27T21:00:40.823Z,4.60
2022-12-27T21:03:08.373Z,4.93
2022-12-27T21:05:37.052Z,5.03
2022-12-27T21:08:04.666Z,4.40
2022-12-27T21:10:33.471Z,4.13
2022-12-27T21:13:00.950Z,5.43
2022-12-27T21:15:31.122Z,4.43
2022-12-27T21:17:58.811Z,6.87
2022-12-27T21:20:26.293Z,5.67
2022-12-27T21:22:53.736Z,7.23
2022-12-27T21:25:21.200Z,5.53
2022-12-27T21:27:49.996Z,7.07
2022-12-27T21:30:17.504Z,5.20
2022-12-27T21:32:44.938Z,5.07
2022-12-27T21:35:12.469Z,8.50
2022-12-27T21:37:39.948Z,6.53
2022-12-27T21:40:08.611Z,5.90
2022-12-27T21:42:36.073Z,7.97
2022-12-27T21:45:05.699Z,5.00
2022-12-27T21:47:33.151Z,6.40
2022-12-27T21:50:00.613Z,5.13
2022-12-27T21:52:28.780Z,7.20
2022-12-27T21:54:56.233Z,5.07
2022-12-27T21:57:23.655Z,6.30
2022-12-27T21:59:51.113Z,6.40
2022-12-27T22:02:20.062Z,6.70
2022-12-27T22:04:47.691Z,6.00
2022-12-27T22:07:15.122Z,6.53
2022-12-27T22:09:42.515Z,6.63
2022-12-27T22:12:09.915Z,7.43
2022-12-27T22:14:37.379Z,6.60
2022-12-27T22:17:04.842Z,6.20
2022-12-27T22:19:33.621Z,5.73
2022-12-27T22:22:01.245Z,5.33
2022-12-27T22:24:29.299Z,5.10
2022-12-27T22:26:56.712Z,5.90
2022-12-27T22:29:24.688Z,6.43
2022-12-27T22:31:52.134Z,5.90
2022-12-27T22:34:19.627Z,7.00
2022-12-27T22:36:50.984Z,5.83
2022-12-27T22:39:18.772Z,6.97
2022-12-27T22:41:46.236Z,6.27
2022-12-27T22:44:15.724Z,7.03
2022-12-27T22:47:24.921Z,7.93
2022-12-27T22:49:31.176Z,6.67
2022-12-27T22:51:59.937Z,6.57
2022-12-27T22:55:03.114Z,6.47
2022-12-27T22:57:14.915Z,7.00
2022-12-27T22:59:43.289Z,6.40
2022-12-27T23:02:10.849Z,8.80
2022-12-27T23:04:38.351Z,6.97
2022-12-27T23:07:07.389Z,6.37
2022-12-27T23:09:40.849Z,6.77
2022-12-27T23:12:10.514Z,5.60
2022-12-27T23:14:37.963Z,6.63
2022-12-27T23:17:05.727Z,6.33
2022-12-27T23:19:33.204Z,5.47
2022-12-27T23:22:00.635Z,8.70
2022-12-27T23:24:29.472Z,5.23
2022-12-27T23:26:56.921Z,8.60
2022-12-27T23:29:24.431Z,8.10
2022-12-27T23:31:55.297Z,5.57
2022-12-27T23:34:28.583Z,5.63
2022-12-27T23:36:56.681Z,7.57
2022-12-27T23:39:24.147Z,6.17
2022-12-27T23:41:52.931Z,8.00
2022-12-27T23:44:34.337Z,6.50
2022-12-27T23:47:03.521Z,6.50
2022-12-27T23:49:31.072Z,6.23
2022-12-27T23:51:58.570Z,6.53
2022-12-27T23:54:25.977Z,8.97
2022-12-27T23:56:54.910Z,8.40
2022-12-27T23:59:22.342Z,7.33
